createdAt,value
2018-05-25T00:00:17.156Z,95.8
2018-05-25T00:01:17.205Z,95.8
2018-05-25T00:02:17.502Z,95.8
2018-05-25T00:03:16.776Z,95.8
2018-05-25T00:04:17.058Z,95.9
2018-05-25T00:05:17.340Z,95.8
2018-05-25T00:06:16.632Z,95.9
2018-05-25T00:07:16.916Z,96.0
2018-05-25T00:08:17.206Z,96.0
2018-05-25T00:09:17.490Z,96.0
2018-05-25T00:10:16.771Z,96.0
2018-05-25T00:11:16.818Z,96.1
2018-05-25T00:12:17.099Z,96.2
2018-05-25T00:13:17.400Z,96.2
2018-05-25T00:14:16.684Z,96.2
2018-05-25T00:15:16.961Z,96.3
2018-05-25T00:16:17.239Z,96.3
2018-05-25T00:17:17.526Z,96.4
2018-05-25T00:18:16.801Z,96.3
2018-05-25T00:19:17.076Z,96.4
2018-05-25T00:20:17.377Z,96.3
2018-05-25T00:21:17.394Z,96.3
2018-05-25T00:22:16.659Z,96.3
2018-05-25T00:23:17.237Z,96.3
2018-05-25T00:24:17.499Z,96.5
2018-05-25T00:25:16.770Z,96.5
2018-05-25T00:26:17.047Z,96.5
2018-05-25T00:27:17.332Z,96.5
2018-05-25T00:28:17.620Z,96.5
2018-05-25T00:29:16.914Z,96.6
2018-05-25T00:30:17.194Z,96.6
2018-05-25T00:31:17.253Z,96.7
2018-05-25T00:32:17.535Z,96.5
2018-05-25T00:33:16.819Z,96.4
2018-05-25T00:34:17.099Z,96.3
2018-05-25T00:35:17.360Z,96.3
2018-05-25T00:36:16.623Z,96.3
2018-05-25T00:37:16.890Z,96.4
2018-05-25T00:38:17.176Z,96.5
2018-05-25T00:39:17.455Z,96.5
2018-05-25T00:40:16.720Z,96.5
2018-05-25T00:41:16.772Z,96.5
2018-05-25T00:42:17.049Z,96.5
2018-05-25T00:43:17.326Z,96.5
2018-05-25T00:44:17.598Z,96.5
2018-05-25T00:45:16.908Z,96.5
2018-05-25T00:46:17.202Z,96.5
2018-05-25T00:47:17.491Z,96.6
2018-05-25T00:48:16.771Z,96.6
2018-05-25T00:49:17.353Z,96.6
2018-05-25T00:50:16.628Z,96.7
2018-05-25T00:51:16.684Z,96.7
2018-05-25T00:52:16.970Z,96.7
2018-05-25T00:53:17.255Z,96.7
2018-05-25T00:54:17.743Z,96.8
2018-05-25T00:55:17.024Z,96.5
2018-05-25T00:56:17.301Z,96.5
2018-05-25T00:57:17.558Z,96.2
2018-05-25T00:58:16.819Z,96.1
2018-05-25T00:59:17.083Z,96.2
2018-05-25T01:00:17.424Z,96.1
2018-05-25T01:01:17.419Z,96.1
2018-05-25T01:02:16.702Z,96.0
2018-05-25T01:03:16.975Z,96.0
2018-05-25T01:04:17.254Z,96.0
2018-05-25T01:05:17.552Z,96.2
2018-05-25T01:06:16.841Z,96.2
2018-05-25T01:07:17.115Z,96.0
2018-05-25T01:08:17.399Z,96.0
2018-05-25T01:09:16.676Z,95.8
2018-05-25T01:10:16.958Z,96.0
2018-05-25T01:11:17.011Z,96.0
2018-05-25T01:12:17.277Z,95.9
2018-05-25T01:13:17.556Z,95.8
2018-05-25T01:14:16.845Z,96.0
2018-05-25T01:15:17.120Z,96.0
2018-05-25T01:16:17.400Z,96.0
2018-05-25T01:17:16.682Z,96.0
2018-05-25T01:18:16.970Z,96.0
2018-05-25T01:19:17.253Z,96.0
2018-05-25T01:20:17.545Z,96.1
2018-05-25T01:21:17.610Z,96.1
2018-05-25T01:22:17.198Z,96.2
2018-05-25T01:23:17.488Z,96.3
2018-05-25T01:24:16.765Z,96.3
2018-05-25T01:25:17.073Z,96.4
2018-05-25T01:26:17.371Z,96.5
2018-05-25T01:27:16.654Z,96.4
2018-05-25T01:28:16.930Z,96.5
2018-05-25T01:29:17.208Z,96.5
2018-05-25T01:30:17.491Z,96.5
2018-05-25T01:31:17.526Z,96.5
2018-05-25T01:32:16.806Z,96.5
2018-05-25T01:33:17.109Z,96.5
2018-05-25T01:34:17.396Z,96.2
2018-05-25T01:35:16.668Z,96.0
2018-05-25T01:36:16.951Z,95.8
2018-05-25T01:37:17.229Z,96.0
2018-05-25T01:38:17.519Z,95.8
2018-05-25T01:39:16.807Z,96.0
2018-05-25T01:40:17.068Z,96.0
2018-05-25T01:41:17.123Z,95.8
2018-05-25T01:42:17.421Z,95.8
2018-05-25T01:43:16.725Z,95.5
2018-05-25T01:44:16.997Z,95.5
2018-05-25T01:45:17.282Z,95.5
2018-05-25T01:46:17.564Z,95.7
2018-05-25T01:47:16.835Z,95.8
2018-05-25T01:48:17.124Z,95.8
2018-05-25T01:49:17.396Z,95.8
2018-05-25T01:50:16.675Z,95.8
2018-05-25T01:51:16.741Z,96.0
2018-05-25T01:52:17.026Z,96.0
2018-05-25T01:53:17.302Z,96.2
2018-05-25T01:54:17.588Z,96.2
2018-05-25T01:55:16.870Z,96.2
2018-05-25T01:56:17.157Z,96.2
2018-05-25T01:57:17.451Z,96.2
2018-05-25T01:58:16.746Z,96.1
2018-05-25T01:59:17.051Z,96.1
2018-05-25T02:00:17.337Z,96.2
2018-05-25T02:01:17.461Z,96.2
2018-05-25T02:02:16.738Z,96.1
2018-05-25T02:03:17.021Z,96.2
2018-05-25T02:04:17.289Z,96.2
2018-05-25T02:05:17.568Z,96.2
2018-05-25T02:06:16.845Z,96.2
2018-05-25T02:07:17.122Z,96.4
2018-05-25T02:08:17.409Z,96.4
2018-05-25T02:09:16.698Z,96.3
2018-05-25T02:10:16.975Z,96.4
2018-05-25T02:11:17.209Z,96.5
2018-05-25T02:12:17.478Z,96.5
2018-05-25T02:13:16.740Z,96.5
2018-05-25T02:14:17.051Z,96.5
2018-05-25T02:15:17.332Z,96.5
2018-05-25T02:16:17.620Z,96.5
2018-05-25T02:17:16.898Z,96.5
2018-05-25T02:18:17.168Z,96.5
2018-05-25T02:19:17.454Z,96.5
2018-05-25T02:20:16.733Z,96.5
2018-05-25T02:21:16.803Z,96.5
2018-05-25T02:22:17.099Z,96.5
2018-05-25T02:23:17.383Z,96.6
2018-05-25T02:24:16.676Z,96.3
2018-05-25T02:25:16.965Z,96.3
2018-05-25T02:26:17.243Z,96.0
2018-05-25T02:27:17.523Z,96.2
2018-05-25T02:28:16.804Z,96.2
2018-05-25T02:29:17.076Z,96.2
2018-05-25T02:30:17.363Z,96.3
2018-05-25T02:31:17.431Z,96.4
2018-05-25T02:32:16.704Z,96.5
2018-05-25T02:33:16.971Z,96.6
2018-05-25T02:34:17.248Z,96.7
2018-05-25T02:35:17.527Z,96.7
2018-05-25T02:36:16.796Z,96.7
2018-05-25T02:37:17.078Z,96.8
2018-05-25T02:38:17.410Z,96.8
2018-05-25T02:39:16.691Z,96.8
2018-05-25T02:40:16.985Z,96.8
2018-05-25T02:41:17.026Z,96.8
2018-05-25T02:42:17.300Z,96.8
2018-05-25T02:43:17.589Z,96.8
2018-05-25T02:44:16.862Z,96.7
2018-05-25T02:45:17.135Z,96.7
2018-05-25T02:46:17.424Z,96.7
2018-05-25T02:47:16.710Z,96.7
2018-05-25T02:48:16.994Z,96.7
2018-05-25T02:49:17.276Z,96.7
2018-05-25T02:50:17.568Z,96.5
2018-05-25T02:51:17.572Z,96.5
2018-05-25T02:52:16.884Z,96.5
2018-05-25T02:53:17.177Z,96.5
2018-05-25T02:54:17.448Z,96.5
2018-05-25T02:55:16.720Z,96.5
2018-05-25T02:56:16.726Z,96.5
2018-05-25T02:57:17.115Z,96.4
2018-05-25T02:58:17.419Z,96.4
2018-05-25T02:59:16.694Z,96.4
2018-05-25T03:00:16.981Z,96.3
2018-05-25T03:01:17.029Z,96.4
2018-05-25T03:02:17.321Z,96.4
2018-05-25T03:03:17.597Z,96.5
2018-05-25T03:04:16.873Z,96.5
2018-05-25T03:05:17.155Z,96.5
2018-05-25T03:06:17.486Z,96.5
2018-05-25T03:07:16.778Z,96.5
2018-05-25T03:08:17.060Z,96.5
2018-05-25T03:09:17.328Z,96.3
2018-05-25T03:10:17.623Z,96.3
2018-05-25T03:11:16.652Z,96.3
2018-05-25T03:12:16.934Z,96.2
2018-05-25T03:13:17.217Z,96.2
2018-05-25T03:14:17.492Z,96.1
2018-05-25T03:15:16.769Z,96.0
2018-05-25T03:16:17.055Z,96.0
2018-05-25T03:17:17.339Z,96.0
2018-05-25T03:18:16.627Z,96.0
2018-05-25T03:19:16.908Z,96.2
2018-05-25T03:20:17.192Z,96.2
2018-05-25T03:21:17.247Z,96.2
2018-05-25T03:22:17.543Z,96.2
2018-05-25T03:23:16.836Z,96.2
2018-05-25T03:24:17.103Z,96.2
2018-05-25T03:25:17.389Z,96.2
2018-05-25T03:26:16.672Z,96.2
2018-05-25T03:27:16.961Z,96.2
2018-05-25T03:28:17.240Z,96.2
2018-05-25T03:29:17.526Z,96.3
2018-05-25T03:30:16.834Z,96.4
2018-05-25T03:31:16.889Z,96.5
2018-05-25T03:32:17.171Z,96.5
2018-05-25T03:33:17.449Z,96.6
2018-05-25T03:34:16.738Z,96.6
2018-05-25T03:35:17.041Z,96.5
2018-05-25T03:36:17.339Z,96.4
2018-05-25T03:37:17.615Z,96.3
2018-05-25T03:38:16.884Z,96.3
2018-05-25T03:39:17.194Z,96.2
2018-05-25T03:40:17.506Z,96.3
2018-05-25T03:41:17.509Z,96.2
2018-05-25T03:42:16.767Z,96.2
2018-05-25T03:43:17.022Z,96.3
2018-05-25T03:44:17.307Z,96.3
2018-05-25T03:45:17.580Z,96.3
2018-05-25T03:46:16.858Z,96.3
2018-05-25T03:47:17.144Z,96.3
2018-05-25T03:48:17.428Z,96.2
2018-05-25T03:49:16.713Z,96.2
2018-05-25T03:50:17.000Z,96.3
2018-05-25T03:51:17.045Z,96.2
2018-05-25T03:52:17.339Z,96.3
2018-05-25T03:53:17.633Z,96.2
2018-05-25T03:54:16.921Z,96.3
2018-05-25T03:55:17.218Z,96.3
2018-05-25T03:56:17.507Z,96.3
2018-05-25T03:57:16.801Z,96.3
2018-05-25T03:58:17.127Z,96.3
2018-05-25T03:59:17.417Z,96.3
2018-05-25T04:00:16.708Z,96.3
2018-05-25T04:01:16.742Z,96.3
2018-05-25T04:02:17.027Z,96.2
2018-05-25T04:03:17.305Z,96.0
2018-05-25T04:04:17.594Z,95.6
2018-05-25T04:05:16.880Z,95.5
2018-05-25T04:06:17.177Z,95.4
2018-05-25T04:07:17.465Z,95.4
2018-05-25T04:08:17.165Z,95.5
2018-05-25T04:09:17.439Z,95.5
2018-05-25T04:10:16.724Z,95.4
2018-05-25T04:11:16.773Z,95.2
2018-05-25T04:12:17.070Z,95.1
2018-05-25T04:13:17.351Z,95.1
2018-05-25T04:14:16.720Z,94.8
2018-05-25T04:15:17.051Z,94.9
2018-05-25T04:16:17.330Z,95.0
2018-05-25T04:17:17.611Z,95.0
2018-05-25T04:18:16.890Z,95.0
2018-05-25T04:19:17.346Z,95.0
2018-05-25T04:20:16.634Z,95.0
2018-05-25T04:21:16.684Z,95.0
2018-05-25T04:22:16.975Z,95.0
2018-05-25T04:23:17.282Z,95.0
2018-05-25T04:24:17.565Z,95.0
2018-05-25T04:25:16.851Z,95.1
2018-05-25T04:26:17.149Z,95.0
2018-05-25T04:27:17.437Z,94.8
2018-05-25T04:28:16.719Z,94.8
2018-05-25T04:29:17.019Z,94.9
2018-05-25T04:30:17.303Z,94.9
2018-05-25T04:31:17.365Z,94.9
2018-05-25T04:32:16.680Z,94.9
2018-05-25T04:33:16.940Z,94.9
2018-05-25T04:34:17.228Z,94.8
2018-05-25T04:35:17.521Z,94.8
2018-05-25T04:36:16.812Z,94.8
2018-05-25T04:37:17.090Z,94.8
2018-05-25T04:38:17.375Z,94.8
2018-05-25T04:39:16.664Z,94.6
2018-05-25T04:40:16.948Z,94.4
2018-05-25T04:41:16.999Z,94.5
2018-05-25T04:42:17.288Z,94.2
2018-05-25T04:43:18.065Z,94.0
2018-05-25T04:44:17.405Z,94.1
2018-05-25T04:45:16.685Z,94.0
2018-05-25T04:46:16.974Z,94.0
2018-05-25T04:47:17.252Z,93.8
2018-05-25T04:48:17.527Z,93.6
2018-05-25T04:49:16.815Z,93.5
2018-05-25T04:50:17.106Z,93.5
2018-05-25T04:51:17.129Z,93.6
2018-05-25T04:52:17.411Z,93.5
2018-05-25T04:53:16.692Z,93.5
2018-05-25T04:54:16.992Z,93.2
2018-05-25T04:55:17.253Z,93.5
2018-05-25T04:56:17.522Z,93.7
2018-05-25T04:57:16.805Z,93.5
2018-05-25T04:58:17.079Z,93.3
2018-05-25T04:59:17.375Z,93.0
2018-05-25T05:00:16.675Z,93.0
2018-05-25T05:01:16.713Z,92.9
2018-05-25T05:02:16.995Z,92.8
2018-05-25T05:03:17.282Z,93.0
2018-05-25T05:04:17.563Z,93.0
2018-05-25T05:05:16.837Z,92.7
2018-05-25T05:06:17.112Z,92.6
2018-05-25T05:07:17.399Z,92.5
2018-05-25T05:08:16.670Z,92.3
2018-05-25T05:09:16.950Z,92.2
2018-05-25T05:10:17.241Z,92.1
2018-05-25T05:11:17.286Z,92.2
2018-05-25T05:12:17.572Z,92.0
2018-05-25T05:13:16.859Z,92.0
2018-05-25T05:14:17.147Z,92.0
2018-05-25T05:15:17.444Z,91.5
2018-05-25T05:16:16.719Z,91.3
2018-05-25T05:17:17.000Z,91.0
2018-05-25T05:18:17.282Z,90.8
2018-05-25T05:19:17.581Z,90.2
2018-05-25T05:20:16.866Z,90.2
2018-05-25T05:21:16.913Z,90.2
2018-05-25T05:22:17.200Z,90.3
2018-05-25T05:23:17.481Z,90.2
2018-05-25T05:24:16.769Z,90.5
2018-05-25T05:25:17.052Z,90.5
2018-05-25T05:26:17.341Z,90.3
2018-05-25T05:27:16.619Z,90.0
2018-05-25T05:28:16.886Z,89.8
2018-05-25T05:29:17.163Z,89.7
2018-05-25T05:30:17.464Z,89.7
2018-05-25T05:31:17.497Z,89.6
2018-05-25T05:32:16.800Z,89.2
2018-05-25T05:33:17.075Z,89.5
2018-05-25T05:34:17.355Z,89.7
2018-05-25T05:35:16.651Z,89.9
2018-05-25T05:36:16.945Z,89.8
2018-05-25T05:37:17.232Z,89.8
2018-05-25T05:38:17.508Z,90.0
2018-05-25T05:39:17.103Z,89.9
2018-05-25T05:40:17.405Z,89.4
2018-05-25T05:41:17.442Z,89.4
2018-05-25T05:42:16.721Z,89.2
2018-05-25T05:43:16.993Z,88.6
2018-05-25T05:44:17.304Z,88.7
2018-05-25T05:45:17.593Z,88.2
2018-05-25T05:46:16.861Z,88.2
2018-05-25T05:47:17.150Z,87.8
2018-05-25T05:48:17.436Z,87.3
2018-05-25T05:49:16.714Z,87.9
2018-05-25T05:50:17.010Z,88.4
2018-05-25T05:51:17.067Z,87.9
2018-05-25T05:52:17.345Z,87.3
2018-05-25T05:53:17.617Z,86.8
2018-05-25T05:54:16.891Z,86.9
2018-05-25T05:55:17.195Z,86.8
2018-05-25T05:56:17.472Z,86.5
2018-05-25T05:57:16.745Z,86.2
2018-05-25T05:58:17.016Z,85.8
2018-05-25T05:59:17.314Z,86.1
2018-05-25T06:00:17.609Z,85.8
2018-05-25T06:01:16.658Z,85.8
2018-05-25T06:02:16.948Z,85.6
2018-05-25T06:03:17.270Z,86.1
2018-05-25T06:04:17.749Z,85.9
2018-05-25T06:05:17.037Z,85.7
2018-05-25T06:06:17.319Z,84.5
2018-05-25T06:07:17.596Z,84.7
2018-05-25T06:08:16.875Z,83.8
2018-05-25T06:09:17.161Z,84.4
2018-05-25T06:10:17.448Z,83.7
2018-05-25T06:11:17.488Z,84.3
2018-05-25T06:12:16.782Z,83.2
2018-05-25T06:13:17.073Z,83.2
2018-05-25T06:14:17.385Z,83.0
2018-05-25T06:15:16.674Z,83.6
2018-05-25T06:16:16.963Z,82.4
2018-05-25T06:17:17.252Z,82.5
2018-05-25T06:18:17.533Z,82.3
2018-05-25T06:19:16.820Z,82.7
2018-05-25T06:20:17.113Z,82.8
2018-05-25T06:21:17.153Z,82.7
2018-05-25T06:22:17.442Z,82.2
2018-05-25T06:23:16.713Z,82.8
2018-05-25T06:24:17.000Z,82.8
2018-05-25T06:25:17.353Z,81.8
2018-05-25T06:26:16.642Z,81.2
2018-05-25T06:27:17.218Z,79.8
2018-05-25T06:28:17.501Z,80.9
2018-05-25T06:29:16.793Z,81.3
2018-05-25T06:30:17.074Z,79.7
2018-05-25T06:31:17.118Z,80.2
2018-05-25T06:32:17.405Z,80.1
2018-05-25T06:33:16.686Z,80.2
2018-05-25T06:34:16.964Z,80.7
2018-05-25T06:35:17.249Z,80.4
2018-05-25T06:36:17.522Z,78.7
2018-05-25T06:37:16.796Z,78.6
2018-05-25T06:38:17.077Z,78.1
2018-05-25T06:39:17.382Z,78.2
2018-05-25T06:40:16.666Z,78.3
2018-05-25T06:41:16.706Z,78.3
2018-05-25T06:42:16.994Z,78.2
2018-05-25T06:43:17.272Z,77.8
2018-05-25T06:44:17.598Z,78.0
2018-05-25T06:45:16.888Z,79.1
2018-05-25T06:46:17.192Z,77.7
2018-05-25T06:47:17.729Z,76.8
2018-05-25T06:48:17.009Z,78.6
2018-05-25T06:49:17.298Z,77.5
2018-05-25T06:50:17.590Z,77.2
2018-05-25T06:51:17.622Z,77.7
2018-05-25T06:52:16.896Z,78.2
2018-05-25T06:53:17.177Z,78.1
2018-05-25T06:54:17.444Z,76.8
2018-05-25T06:55:16.743Z,76.3
2018-05-25T06:56:17.055Z,75.7
2018-05-25T06:57:17.337Z,76.0
2018-05-25T06:58:17.605Z,76.4
2018-05-25T06:59:16.874Z,75.4
2018-05-25T07:00:17.185Z,75.3
2018-05-25T07:01:17.190Z,74.8
2018-05-25T07:02:17.485Z,74.3
2018-05-25T07:03:17.081Z,74.5
2018-05-25T07:04:17.356Z,75.0
2018-05-25T07:05:16.642Z,75.6
2018-05-25T07:06:16.924Z,74.1
2018-05-25T07:07:17.209Z,73.3
2018-05-25T07:08:17.499Z,73.8
2018-05-25T07:09:16.770Z,72.8
2018-05-25T07:10:17.050Z,71.0
2018-05-25T07:11:17.111Z,73.2
2018-05-25T07:12:17.389Z,74.2
2018-05-25T07:13:16.698Z,75.7
2018-05-25T07:14:16.985Z,74.5
2018-05-25T07:15:17.274Z,74.6
2018-05-25T07:16:17.569Z,74.0
2018-05-25T07:17:16.890Z,73.8
2018-05-25T07:18:17.180Z,73.8
2018-05-25T07:19:17.444Z,73.2
2018-05-25T07:20:16.745Z,69.5
2018-05-25T07:21:16.791Z,68.8
2018-05-25T07:22:17.076Z,69.7
2018-05-25T07:23:17.356Z,70.2
2018-05-25T07:24:16.653Z,70.7
2018-05-25T07:25:16.941Z,69.8
2018-05-25T07:26:17.227Z,69.7
2018-05-25T07:27:17.505Z,68.9
2018-05-25T07:28:16.789Z,70.8
2018-05-25T07:29:17.083Z,69.8
2018-05-25T07:30:17.357Z,70.8
2018-05-25T07:31:17.414Z,71.1
2018-05-25T07:32:16.699Z,72.8
2018-05-25T07:33:16.981Z,74.0
2018-05-25T07:34:17.260Z,73.5
2018-05-25T07:35:17.548Z,73.1
2018-05-25T07:36:16.831Z,72.2
2018-05-25T07:37:17.105Z,71.6
2018-05-25T07:38:17.379Z,71.3
2018-05-25T07:39:16.716Z,71.0
2018-05-25T07:40:17.013Z,72.0
2018-05-25T07:41:17.060Z,71.8
2018-05-25T07:42:17.347Z,73.1
2018-05-25T07:43:16.632Z,75.8
2018-05-25T07:44:16.905Z,74.3
2018-05-25T07:45:17.222Z,75.0
2018-05-25T07:46:17.502Z,75.0
2018-05-25T07:47:16.781Z,75.7
2018-05-25T07:48:17.054Z,75.7
2018-05-25T07:49:17.337Z,70.6
2018-05-25T07:50:17.623Z,70.5
2018-05-25T07:51:16.673Z,69.2
2018-05-25T07:52:16.965Z,69.5
2018-05-25T07:53:17.252Z,70.2
2018-05-25T07:54:17.584Z,69.0
2018-05-25T07:55:16.884Z,69.6
2018-05-25T07:56:17.155Z,67.6
2018-05-25T07:57:17.431Z,67.8
2018-05-25T07:58:16.709Z,69.6
2018-05-25T07:59:16.987Z,69.6
2018-05-25T08:00:17.449Z,67.9
2018-05-25T08:01:17.321Z,68.7
2018-05-25T08:02:17.604Z,68.8
2018-05-25T08:03:16.862Z,68.8
2018-05-25T08:04:17.137Z,70.2
2018-05-25T08:05:17.425Z,71.8
2018-05-25T08:06:16.752Z,69.8
2018-05-25T08:07:17.057Z,67.7
2018-05-25T08:08:17.352Z,66.8
2018-05-25T08:09:16.632Z,67.7
2018-05-25T08:10:16.897Z,67.2
2018-05-25T08:11:16.983Z,67.7
2018-05-25T08:12:17.258Z,67.3
2018-05-25T08:13:17.543Z,67.2
2018-05-25T08:14:16.818Z,66.5
2018-05-25T08:15:17.097Z,66.2
2018-05-25T08:16:17.377Z,66.8
2018-05-25T08:17:16.651Z,65.0
2018-05-25T08:18:16.927Z,63.3
2018-05-25T08:19:17.210Z,63.8
2018-05-25T08:20:17.500Z,63.6
2018-05-25T08:21:17.533Z,61.3
2018-05-25T08:22:16.814Z,62.4
2018-05-25T08:23:17.092Z,62.0
2018-05-25T08:24:17.376Z,62.5
2018-05-25T08:25:16.688Z,62.0
2018-05-25T08:26:16.994Z,61.1
2018-05-25T08:27:17.287Z,59.5
2018-05-25T08:28:17.563Z,60.1
2018-05-25T08:29:16.842Z,61.8
2018-05-25T08:30:17.210Z,59.8
2018-05-25T08:31:17.153Z,61.1
2018-05-25T08:32:17.433Z,60.8
2018-05-25T08:33:16.720Z,58.0
2018-05-25T08:34:17.006Z,58.1
2018-05-25T08:35:17.294Z,60.1
2018-05-25T08:36:17.596Z,63.3
2018-05-25T08:37:16.879Z,63.3
2018-05-25T08:38:17.174Z,63.0
2018-05-25T08:39:17.453Z,65.0
2018-05-25T08:40:16.747Z,64.7
2018-05-25T08:41:16.769Z,64.5
2018-05-25T08:42:17.056Z,64.0
2018-05-25T08:43:17.401Z,65.2
2018-05-25T08:44:16.709Z,65.0
2018-05-25T08:45:16.997Z,65.9
2018-05-25T08:46:17.289Z,62.8
2018-05-25T08:47:17.583Z,62.5
2018-05-25T08:48:16.867Z,63.2
2018-05-25T08:49:17.156Z,60.8
2018-05-25T08:50:17.444Z,62.9
2018-05-25T08:51:17.491Z,61.2
2018-05-25T08:52:16.798Z,59.7
2018-05-25T08:53:17.073Z,59.5
2018-05-25T08:54:17.332Z,60.5
2018-05-25T08:55:17.614Z,56.7
2018-05-25T08:56:16.902Z,57.2
2018-05-25T08:57:17.181Z,59.1
2018-05-25T08:58:17.455Z,59.9
2018-05-25T08:59:16.742Z,61.0
2018-05-25T09:00:17.024Z,61.0
2018-05-25T09:01:17.158Z,61.8
2018-05-25T09:02:17.503Z,62.1
2018-05-25T09:03:16.792Z,62.1
2018-05-25T09:04:17.076Z,61.0
2018-05-25T09:05:17.355Z,61.5
2018-05-25T09:06:16.629Z,62.1
2018-05-25T09:07:16.916Z,63.5
2018-05-25T09:08:17.198Z,62.0
2018-05-25T09:09:17.489Z,61.9
2018-05-25T09:10:16.767Z,62.5
2018-05-25T09:11:16.802Z,62.1
2018-05-25T09:12:17.125Z,61.5
2018-05-25T09:13:17.414Z,61.7
2018-05-25T09:14:16.691Z,60.9
2018-05-25T09:15:16.973Z,58.8
2018-05-25T09:16:17.256Z,58.1
2018-05-25T09:17:17.541Z,56.8
2018-05-25T09:18:16.827Z,53.9
2018-05-25T09:19:17.124Z,54.1
2018-05-25T09:20:17.407Z,55.8
2018-05-25T09:21:17.888Z,53.4
2018-05-25T09:22:17.176Z,54.6
2018-05-25T09:23:17.468Z,57.8
2018-05-25T09:24:16.748Z,57.8
2018-05-25T09:25:17.058Z,59.1
2018-05-25T09:26:17.351Z,59.4
2018-05-25T09:27:16.611Z,58.9
2018-05-25T09:28:16.897Z,61.1
2018-05-25T09:29:17.198Z,60.9
2018-05-25T09:30:17.490Z,61.1
2018-05-25T09:31:17.545Z,60.5
2018-05-25T09:32:16.832Z,61.5
2018-05-25T09:33:17.115Z,62.1
2018-05-25T09:34:17.393Z,61.6
2018-05-25T09:35:16.667Z,62.5
2018-05-25T09:36:17.033Z,60.2
2018-05-25T09:37:17.327Z,58.8
2018-05-25T09:38:17.617Z,58.9
2018-05-25T09:39:16.901Z,56.3
2018-05-25T09:40:17.201Z,58.2
2018-05-25T09:41:17.211Z,55.2
2018-05-25T09:42:17.476Z,57.0
2018-05-25T09:43:16.754Z,55.6
2018-05-25T09:44:17.036Z,55.0
2018-05-25T09:45:17.326Z,54.3
2018-05-25T09:46:17.612Z,56.4
2018-05-25T09:47:16.895Z,52.8
2018-05-25T09:48:17.182Z,55.1
2018-05-25T09:49:17.466Z,52.0
2018-05-25T09:50:16.756Z,50.7
2018-05-25T09:51:16.808Z,50.3
2018-05-25T09:52:17.089Z,49.8
2018-05-25T09:53:17.390Z,48.8
2018-05-25T09:54:16.680Z,49.6
2018-05-25T09:55:16.949Z,49.8
2018-05-25T09:56:17.230Z,50.0
2018-05-25T09:57:17.530Z,50.5
2018-05-25T09:58:16.830Z,51.0
2018-05-25T09:59:17.116Z,49.9
2018-05-25T10:00:17.389Z,51.2
2018-05-25T10:01:17.450Z,51.9
2018-05-25T10:02:16.706Z,51.3
2018-05-25T10:03:16.981Z,50.3
2018-05-25T10:04:17.259Z,50.6
2018-05-25T10:05:17.861Z,51.9
2018-05-25T10:06:17.130Z,52.2
2018-05-25T10:07:17.406Z,52.3
2018-05-25T10:08:16.682Z,51.0
2018-05-25T10:09:16.971Z,50.8
2018-05-25T10:10:17.234Z,53.1
2018-05-25T10:11:17.293Z,52.4
2018-05-25T10:12:17.569Z,52.2
2018-05-25T10:13:16.845Z,51.9
2018-05-25T10:14:17.127Z,53.5
2018-05-25T10:15:17.421Z,53.0
2018-05-25T10:16:16.722Z,52.3
2018-05-25T10:17:17.023Z,51.3
2018-05-25T10:18:17.312Z,51.5
2018-05-25T10:19:17.597Z,51.2
2018-05-25T10:20:16.891Z,51.1
2018-05-25T10:21:16.921Z,51.3
2018-05-25T10:22:17.200Z,51.8
2018-05-25T10:23:17.728Z,51.0
2018-05-25T10:24:16.999Z,52.5
2018-05-25T10:25:17.290Z,53.6
2018-05-25T10:26:17.569Z,54.0
2018-05-25T10:27:16.845Z,53.3
2018-05-25T10:28:17.122Z,54.5
2018-05-25T10:29:17.397Z,54.5
2018-05-25T10:30:16.690Z,54.9
2018-05-25T10:31:16.739Z,55.5
2018-05-25T10:32:17.039Z,56.6
2018-05-25T10:33:17.323Z,56.1
2018-05-25T10:34:17.605Z,55.6
2018-05-25T10:35:16.892Z,55.4
2018-05-25T10:36:17.176Z,57.1
2018-05-25T10:37:17.449Z,55.8
2018-05-25T10:38:16.717Z,56.3
2018-05-25T10:39:16.990Z,55.9
2018-05-25T10:40:17.315Z,55.5
2018-05-25T10:41:17.396Z,56.6
2018-05-25T10:42:16.710Z,56.2
2018-05-25T10:43:16.967Z,56.4
2018-05-25T10:44:17.235Z,55.9
2018-05-25T10:45:17.523Z,56.5
2018-05-25T10:46:16.810Z,57.2
2018-05-25T10:47:17.095Z,56.0
2018-05-25T10:48:17.368Z,58.6
2018-05-25T10:49:16.660Z,58.0
2018-05-25T10:50:16.948Z,59.2
2018-05-25T10:51:17.015Z,61.2
2018-05-25T10:52:17.312Z,62.9
2018-05-25T10:53:17.590Z,63.6
2018-05-25T10:54:16.863Z,64.5
2018-05-25T10:55:17.141Z,64.4
2018-05-25T10:56:17.426Z,64.0
2018-05-25T10:57:16.699Z,64.5
2018-05-25T10:58:16.982Z,64.3
2018-05-25T10:59:17.270Z,65.0
2018-05-25T11:00:17.793Z,65.2
2018-05-25T11:01:17.616Z,66.4
2018-05-25T11:02:16.897Z,66.7
2018-05-25T11:03:17.182Z,67.3
2018-05-25T11:04:17.462Z,66.8
2018-05-25T11:05:16.737Z,68.0
2018-05-25T11:06:17.981Z,67.1
2018-05-25T11:07:18.281Z,67.7
2018-05-25T11:08:17.782Z,68.1
2018-05-25T11:09:17.303Z,69.2
2018-05-25T11:10:17.594Z,69.3
2018-05-25T11:11:16.802Z,68.2
2018-05-25T11:12:17.070Z,68.8
2018-05-25T11:13:17.366Z,69.6
2018-05-25T11:14:16.669Z,71.0
2018-05-25T11:15:16.973Z,71.2
2018-05-25T11:16:17.256Z,70.5
2018-05-25T11:17:17.543Z,70.8
2018-05-25T11:18:16.832Z,69.8
2018-05-25T11:19:17.113Z,70.2
2018-05-25T11:20:17.391Z,70.7
2018-05-25T11:21:17.449Z,70.1
2018-05-25T11:22:16.748Z,71.2
2018-05-25T11:23:17.027Z,71.2
2018-05-25T11:24:17.302Z,71.3
2018-05-25T11:25:17.595Z,71.4
2018-05-25T11:26:16.871Z,70.8
2018-05-25T11:27:17.146Z,71.4
2018-05-25T11:28:17.425Z,71.1
2018-05-25T11:29:16.717Z,71.2
2018-05-25T11:30:16.998Z,72.2
2018-05-25T11:31:17.045Z,72.3
2018-05-25T11:32:17.336Z,71.8
2018-05-25T11:33:17.625Z,71.2
2018-05-25T11:34:16.954Z,71.3
2018-05-25T11:35:17.231Z,71.2
2018-05-25T11:36:17.518Z,71.2
2018-05-25T11:37:17.110Z,71.1
2018-05-25T11:38:17.386Z,70.0
2018-05-25T11:39:16.680Z,70.4
2018-05-25T11:40:16.964Z,70.6
2018-05-25T11:41:17.017Z,71.0
2018-05-25T11:42:17.325Z,70.8
2018-05-25T11:43:17.606Z,69.9
2018-05-25T11:44:16.890Z,70.0
2018-05-25T11:45:17.182Z,70.0
2018-05-25T11:46:17.459Z,69.6
2018-05-25T11:47:16.751Z,69.7
2018-05-25T11:48:17.039Z,69.6
2018-05-25T11:49:17.318Z,69.8
2018-05-25T11:50:17.606Z,70.0
2018-05-25T11:51:16.653Z,68.3
2018-05-25T11:52:16.932Z,68.8
2018-05-25T11:53:17.551Z,67.8
2018-05-25T11:54:16.831Z,67.9
2018-05-25T11:55:17.100Z,67.4
2018-05-25T11:56:17.376Z,67.5
2018-05-25T11:57:16.652Z,66.2
2018-05-25T11:58:16.933Z,66.7
2018-05-25T11:59:17.216Z,66.4
2018-05-25T12:00:17.509Z,67.2
2018-05-25T12:01:17.555Z,66.2
2018-05-25T12:02:16.834Z,67.2
2018-05-25T12:03:17.120Z,66.2
2018-05-25T12:04:17.411Z,65.8
2018-05-25T12:05:16.693Z,66.2
2018-05-25T12:06:16.967Z,65.9
2018-05-25T12:07:17.245Z,65.6
2018-05-25T12:08:17.550Z,65.0
2018-05-25T12:09:16.826Z,66.0
2018-05-25T12:10:17.117Z,64.0
2018-05-25T12:11:17.165Z,64.8
2018-05-25T12:12:17.448Z,64.3
2018-05-25T12:13:16.708Z,63.6
2018-05-25T12:14:16.968Z,63.6
2018-05-25T12:15:17.255Z,63.9
2018-05-25T12:16:17.521Z,63.1
2018-05-25T12:17:16.813Z,62.8
2018-05-25T12:18:17.089Z,63.1
2018-05-25T12:19:17.374Z,62.7
2018-05-25T12:20:16.658Z,63.8
2018-05-25T12:21:16.682Z,63.0
2018-05-25T12:22:16.958Z,62.6
2018-05-25T12:23:17.244Z,62.4
2018-05-25T12:24:17.533Z,62.6
2018-05-25T12:25:16.838Z,62.2
2018-05-25T12:26:17.130Z,61.3
2018-05-25T12:27:17.400Z,61.9
2018-05-25T12:28:16.680Z,61.4
2018-05-25T12:29:16.966Z,60.9
2018-05-25T12:30:17.259Z,61.4
2018-05-25T12:31:17.287Z,60.5
2018-05-25T12:32:17.571Z,61.1
2018-05-25T12:33:16.850Z,60.6
2018-05-25T12:34:17.124Z,61.5
2018-05-25T12:35:17.412Z,60.0
2018-05-25T12:36:16.688Z,60.1
2018-05-25T12:37:16.958Z,60.0
2018-05-25T12:38:17.275Z,60.7
2018-05-25T12:39:17.591Z,59.0
2018-05-25T12:40:16.882Z,60.2
2018-05-25T12:41:16.929Z,59.7
2018-05-25T12:42:17.206Z,59.6
2018-05-25T12:43:17.470Z,59.6
2018-05-25T12:44:16.737Z,58.9
2018-05-25T12:45:17.025Z,59.0
2018-05-25T12:46:17.304Z,59.5
2018-05-25T12:47:17.591Z,59.2
2018-05-25T12:48:16.869Z,58.5
2018-05-25T12:49:17.147Z,57.6
2018-05-25T12:50:17.443Z,57.1
2018-05-25T12:51:17.474Z,56.9
2018-05-25T12:52:16.762Z,58.0
2018-05-25T12:53:17.041Z,58.6
2018-05-25T12:54:17.315Z,58.8
2018-05-25T12:55:17.605Z,57.7
2018-05-25T12:56:16.892Z,56.5
2018-05-25T12:57:17.173Z,57.2
2018-05-25T12:58:17.446Z,57.7
2018-05-25T12:59:16.716Z,56.6
2018-05-25T13:00:17.021Z,57.3
2018-05-25T13:01:17.054Z,57.3
2018-05-25T13:02:17.329Z,56.5
2018-05-25T13:03:17.631Z,56.4
2018-05-25T13:04:16.908Z,57.9
2018-05-25T13:05:17.180Z,57.1
2018-05-25T13:06:17.460Z,55.9
2018-05-25T13:07:16.740Z,56.1
2018-05-25T13:08:17.029Z,55.5
2018-05-25T13:09:17.317Z,55.4
2018-05-25T13:10:17.604Z,54.5
2018-05-25T13:11:16.657Z,53.1
2018-05-25T13:12:16.934Z,54.3
2018-05-25T13:13:17.226Z,54.8
2018-05-25T13:14:17.518Z,56.2
2018-05-25T13:15:16.812Z,56.6
2018-05-25T13:16:17.113Z,56.4
2018-05-25T13:17:17.410Z,56.7
2018-05-25T13:18:16.718Z,57.5